Time;durP1;ratioP1;P1;durP2;ratioP2;P2;SDS_P1;SDS_P2;PMS_P1;PMS_P2;Temp;Humidity;BMP_temperature;BMP_pressure;BME280_temperature;BME280_humidity;BME280_pressure;Samples;Min_cycle;Max_cycle;Signal;HPM_P1;HPM_P2
2023/10/18 00:00:31;;;;;;;13.73;12.52;;;9.10;51.00;;;;;;20778;6837;118798;-80
2023/10/18 00:02:32;;;;;;;14.27;12.80;;;8.80;51.30;;;;;;20589;6837;117327;-76
2023/10/18 00:05:00;;;;;;;14.07;12.88;;;8.60;51.70;;;;;;20745;6837;117747;-76
2023/10/18 00:07:27;;;;;;;12.80;11.57;;;8.40;52.00;;;;;;20720;6837;128600;-76
2023/10/18 00:09:51;;;;;;;12.40;11.20;;;8.30;52.40;;;;;;20732;6837;118945;-79
2023/10/18 00:12:16;;;;;;;17.62;16.12;;;8.20;52.60;;;;;;20523;6837;309077;-76
2023/10/18 00:14:42;;;;;;;18.67;17.00;;;8.40;53.00;;;;;;20522;6837;309948;-77
2023/10/18 00:17:09;;;;;;;17.80;16.30;;;8.80;52.70;;;;;;20484;6837;278261;-77
2023/10/18 00:19:33;;;;;;;15.07;13.67;;;9.20;52.10;;;;;;20710;6837;117635;-78
2023/10/18 00:21:59;;;;;;;13.67;12.40;;;9.10;51.80;;;;;;20727;6837;120319;-76
2023/10/18 00:24:25;;;;;;;17.75;16.35;;;8.90;52.20;;;;;;20516;6835;312492;-76
2023/10/18 00:26:53;;;;;;;15.50;14.03;;;8.90;52.10;;;;;;20738;6836;117542;-76
2023/10/18 00:29:17;;;;;;;17.05;15.63;;;8.90;52.00;;;;;;20516;6836;312772;-77
2023/10/18 00:31:42;;;;;;;13.67;12.37;;;9.00;52.00;;;;;;20674;6858;118204;-77
2023/10/18 00:34:08;;;;;;;17.63;16.13;;;9.00;51.70;;;;;;20491;6849;294669;-78
2023/10/18 00:36:34;;;;;;;15.23;13.80;;;9.00;51.50;;;;;;20699;6849;119085;-77
2023/10/18 00:39:00;;;;;;;18.43;16.93;;;8.90;51.40;;;;;;20482;6849;322190;-79
2023/10/18 00:41:33;;;;;;;15.17;13.80;;;8.90;51.70;;;;;;20677;6849;118179;-77
2023/10/18 00:43:56;;;;;;;13.70;12.40;;;8.90;51.60;;;;;;20673;6849;117413;-76
2023/10/18 00:46:21;;;;;;;14.37;13.00;;;8.70;51.90;;;;;;20689;6849;117754;-77
2023/10/18 00:48:46;;;;;;;14.00;12.60;;;8.50;52.30;;;;;;20698;6849;118728;-79
2023/10/18 00:51:16;;;;;;;13.03;11.67;;;8.30;52.70;;;;;;20693;6849;118241;-76
2023/10/18 00:53:37;;;;;;;12.47;11.37;;;8.20;53.00;;;;;;20664;6849;118620;-76
2023/10/18 00:56:07;;;;;;;14.33;12.87;;;8.20;53.30;;;;;;20701;6849;118058;-78
2023/10/18 00:58:29;;;;;;;16.03;14.63;;;8.10;53.30;;;;;;20458;6849;309474;-76
2023/10/18 01:00:56;;;;;;;17.33;15.83;;;8.80;52.40;;;;;;20492;6849;286705;-81
2023/10/18 01:03:32;;;;;;;14.87;13.57;;;8.70;52.40;;;;;;20677;6849;117824;-77
2023/10/18 01:06:00;;;;;;;13.87;12.47;;;8.80;52.00;;;;;;20686;6849;117591;-77
2023/10/18 01:08:25;;;;;;;18.07;16.47;;;8.50;52.10;;;;;;20472;6849;311642;-80
2023/10/18 01:10:51;;;;;;;18.57;16.90;;;8.60;52.20;;;;;;20469;6849;314552;-77
2023/10/18 01:13:20;;;;;;;17.03;15.63;;;8.90;51.90;;;;;;20471;6849;295241;-78
2023/10/18 01:15:44;;;;;;;14.50;13.10;;;9.20;51.80;;;;;;20690;6849;118765;-77
2023/10/18 01:18:08;;;;;;;15.95;14.70;;;9.10;51.70;;;;;;20475;6849;337339;-77
2023/10/18 01:20:38;;;;;;;14.13;12.82;;;9.10;51.60;;;;;;20718;6849;73729;-80
2023/10/18 01:23:00;;;;;;;13.10;11.90;;;9.00;51.60;;;;;;20685;6849;117995;-78
2023/10/18 01:25:25;;;;;;;15.18;13.90;;;8.80;51.90;;;;;;20465;6849;282740;-80
2023/10/18 01:27:51;;;;;;;12.90;11.60;;;8.90;51.90;;;;;;20688;6849;117528;-78
2023/10/18 01:30:17;;;;;;;17.13;15.70;;;9.00;51.20;;;;;;20488;6849;289239;-77
2023/10/18 01:32:42;;;;;;;17.05;15.55;;;9.00;51.20;;;;;;20479;6849;337608;-80
2023/10/18 01:35:08;;;;;;;17.57;16.07;;;9.30;51.10;;;;;;20488;6847;279386;-80
2023/10/18 01:37:34;;;;;;;13.70;12.60;;;9.50;51.00;;;;;;20684;6848;120735;-77
2023/10/18 01:40:19;;;;;;;12.50;11.40;;;9.30;50.80;;;;;;20691;6849;120255;-77
2023/10/18 01:42:25;;;;;;;15.63;14.23;;;9.10;52.10;;;;;;20420;6849;280445;-75
2023/10/18 01:44:52;;;;;;;16.15;14.75;;;9.10;52.10;;;;;;20486;6849;307898;-80
2023/10/18 01:47:20;;;;;;;16.60;15.20;;;9.30;51.50;;;;;;20483;6849;279613;-79
2023/10/18 01:49:50;;;;;;;14.73;13.23;;;9.50;49.70;;;;;;20540;6849;119077;-77
2023/10/18 01:52:17;;;;;;;13.20;11.90;;;9.30;49.70;;;;;;20691;6849;117324;-78
2023/10/18 01:54:41;;;;;;;13.95;12.65;;;8.70;50.90;;;;;;20689;6849;117411;-77
2023/10/18 01:57:06;;;;;;;16.02;14.73;;;8.70;51.10;;;;;;20478;6849;337818;-80
2023/10/18 01:59:34;;;;;;;16.70;15.40;;;9.10;51.20;;;;;;20464;6849;280556;-79
2023/10/18 02:01:59;;;;;;;16.33;15.03;;;9.10;51.10;;;;;;20472;6849;312420;-80
2023/10/18 02:04:30;;;;;;;14.40;12.93;;;9.40;50.40;;;;;;20693;6849;117755;-78
2023/10/18 02:06:59;;;;;;;14.10;12.73;;;9.20;50.30;;;;;;20692;6849;118413;-78
2023/10/18 02:09:23;;;;;;;15.97;14.67;;;8.80;50.60;;;;;;20474;6849;308539;-80
2023/10/18 02:11:48;;;;;;;16.77;15.37;;;8.80;51.00;;;;;;20482;6849;310279;-78
2023/10/18 02:14:14;;;;;;;16.35;14.95;;;9.10;51.20;;;;;;20488;6849;314251;-77
2023/10/18 02:16:40;;;;;;;12.60;11.50;;;9.30;50.80;;;;;;20700;6849;117401;-80
2023/10/18 02:19:06;;;;;;;12.77;11.68;;;9.20;50.80;;;;;;20688;6849;117409;-77
2023/10/18 02:21:32;;;;;;;16.37;15.02;;;8.90;51.20;;;;;;20444;6849;339923;-77
2023/10/18 02:23:57;;;;;;;17.40;16.00;;;8.90;51.00;;;;;;20476;6849;289990;-79
2023/10/18 02:26:30;;;;;;;14.25;13.02;;;9.20;50.20;;;;;;20697;6849;123569;-77
2023/10/18 02:28:56;;;;;;;14.87;13.30;;;9.10;50.20;;;;;;20700;6849;117741;-77
2023/10/18 02:31:22;;;;;;;13.30;12.00;;;8.60;51.40;;;;;;20684;6849;117765;-78
2023/10/18 02:33:48;;;;;;;15.77;14.48;;;8.70;51.60;;;;;;20489;6849;308941;-77
2023/10/18 02:36:32;;;;;;;15.88;14.57;;;9.00;51.20;;;;;;20477;6849;308624;-76
2023/10/18 02:38:55;;;;;;;13.83;12.63;;;9.00;51.20;;;;;;20667;6849;117401;-77
2023/10/18 02:41:26;;;;;;;15.52;14.23;;;9.00;51.00;;;;;;20466;6849;308188;-77
2023/10/18 02:43:55;;;;;;;14.82;13.52;;;9.10;50.50;;;;;;20463;6849;308032;-78
2023/10/18 02:46:20;;;;;;;15.60;14.37;;;9.30;49.60;;;;;;20458;6847;293903;-77
2023/10/18 02:48:44;;;;;;;15.25;13.95;;;9.40;48.90;;;;;;20473;6848;282868;-80
2023/10/18 02:51:11;;;;;;;12.13;11.23;;;9.50;48.50;;;;;;20693;6849;118206;-81
2023/10/18 02:53:40;;;;;;;11.52;10.55;;;9.20;48.70;;;;;;20668;6849;119848;-77
2023/10/18 02:55:59;;;;;;;10.83;9.87;;;8.80;49.90;;;;;;20691;6849;118659;-80
2023/10/18 02:58:28;;;;;;;13.10;12.10;;;8.50;50.00;;;;;;20490;6849;308323;-77
2023/10/18 03:00:50;;;;;;;12.70;11.63;;;8.50;50.30;;;;;;20682;6849;117279;-77
2023/10/18 03:03:16;;;;;;;9.90;9.03;;;8.40;50.10;;;;;;20709;6849;117343;-79
2023/10/18 03:05:41;;;;;;;13.35;12.35;;;8.20;50.50;;;;;;20474;6849;308520;-77
2023/10/18 03:08:08;;;;;;;10.77;9.77;;;8.30;50.60;;;;;;20709;6849;123751;-80
2023/10/18 03:10:32;;;;;;;11.85;11.05;;;8.30;50.40;;;;;;20486;6849;307438;-78
2023/10/18 03:12:58;;;;;;;11.53;10.73;;;8.50;50.40;;;;;;20457;6849;312689;-77
2023/10/18 03:15:23;;;;;;;10.00;9.30;;;8.80;49.40;;;;;;20666;6849;119143;-78
2023/10/18 03:17:49;;;;;;;11.48;10.68;;;8.70;49.30;;;;;;20486;6849;330372;-77
2023/10/18 03:20:23;;;;;;;12.65;11.75;;;8.70;49.70;;;;;;20483;6849;309256;-80
2023/10/18 03:22:50;;;;;;;10.80;10.00;;;8.80;49.40;;;;;;20694;6849;117511;-76
2023/10/18 03:25:17;;;;;;;10.93;9.90;;;8.50;50.00;;;;;;20694;6849;117441;-78
2023/10/18 03:27:57;;;;;;;9.60;8.90;;;8.40;49.80;;;;;;20548;6849;118275;-77
2023/10/18 03:30:18;;;;;;;9.60;8.87;;;8.20;50.20;;;;;;20615;6849;117346;-75
2023/10/18 03:32:38;;;;;;;9.97;9.10;;;8.00;50.40;;;;;;20683;6849;117528;-76
2023/10/18 03:35:08;;;;;;;12.10;11.20;;;7.80;50.70;;;;;;20490;6849;285741;-79
2023/10/18 03:37:33;;;;;;;10.70;9.90;;;7.90;50.30;;;;;;20671;6849;118590;-77
2023/10/18 03:39:56;;;;;;;10.23;9.53;;;7.90;50.30;;;;;;20700;6849;117814;-75
2023/10/18 03:42:31;;;;;;;11.30;10.30;;;7.70;50.50;;;;;;20692;6849;117026;-77
2023/10/18 03:45:00;;;;;;;13.20;12.27;;;7.60;51.00;;;;;;20483;6849;320655;-74
2023/10/18 03:47:26;;;;;;;12.60;11.60;;;7.70;51.50;;;;;;20673;6849;118590;-72
2023/10/18 03:49:58;;;;;;;15.75;14.45;;;7.80;51.30;;;;;;20488;6849;298622;-73
2023/10/18 03:52:27;;;;;;;13.10;12.00;;;8.00;51.10;;;;;;20693;6849;123082;-72
2023/10/18 03:57:19;;;;;;;19.17;17.52;;;8.10;51.20;;;;;;20470;6848;283248;-72
2023/10/18 03:59:49;;;;;;;15.33;13.83;;;8.40;51.10;;;;;;20683;6848;117440;-72
2023/10/18 04:02:27;;;;;;;16.90;15.40;;;8.30;50.90;;;;;;20457;6849;279857;-74
2023/10/18 04:04:47;;;;;;;17.63;16.23;;;8.30;51.20;;;;;;20457;6849;313430;-74
2023/10/18 04:07:31;;;;;;;9.90;9.20;;;8.50;50.90;;;;;;20686;6849;119545;-75
2023/10/18 04:09:46;;;;;;;11.63;10.83;;;8.40;50.80;;;;;;20352;6849;309056;-75
2023/10/18 04:12:07;;;;;;;18.93;9.87;;;8.40;50.40;;;;;;20591;6849;117342;-74
2023/10/18 04:14:33;;;;;;;10.80;9.80;;;8.20;50.30;;;;;;20692;6849;118759;-75
2023/10/18 04:16:59;;;;;;;10.00;9.20;;;8.00;50.60;;;;;;20700;6849;117285;-74
2023/10/18 04:19:24;;;;;;;11.20;10.30;;;7.70;50.80;;;;;;20680;6849;117703;-74
2023/10/18 04:21:53;;;;;;;13.27;12.27;;;7.50;51.20;;;;;;20498;6849;316407;-76
2023/10/18 04:24:15;;;;;;;12.03;11.07;;;7.60;51.50;;;;;;20693;6849;117816;-77
2023/10/18 04:26:41;;;;;;;11.37;10.37;;;7.60;51.50;;;;;;20712;6849;117407;-75
2023/10/18 04:29:10;;;;;;;10.73;9.93;;;7.50;51.60;;;;;;20703;6849;117350;-73
2023/10/18 04:31:32;;;;;;;9.43;8.65;;;7.40;51.90;;;;;;20674;6849;120033;-76
2023/10/18 04:34:04;;;;;;;14.30;13.23;;;7.20;51.90;;;;;;20490;6849;338210;-79
2023/10/18 04:36:33;;;;;;;10.23;9.43;;;7.40;52.00;;;;;;20700;6849;121398;-75
2023/10/18 04:38:56;;;;;;;11.23;10.52;;;7.40;51.60;;;;;;20487;6849;309558;-75
2023/10/18 04:41:27;;;;;;;11.73;10.88;;;7.60;51.40;;;;;;20477;6849;280238;-75
2023/10/18 04:43:53;;;;;;;12.75;11.85;;;7.90;50.60;;;;;;20480;6849;278421;-74
2023/10/18 04:46:22;;;;;;;13.65;12.55;;;8.20;49.80;;;;;;20493;6849;312637;-74
2023/10/18 04:51:27;;;;;;;12.30;11.23;;;7.90;50.50;;;;;;20696;6849;117657;-75
2023/10/18 04:53:53;;;;;;;15.13;13.93;;;7.80;50.40;;;;;;20344;6849;309573;-77
2023/10/18 04:56:19;;;;;;;12.87;11.73;;;7.90;51.10;;;;;;20714;6849;68222;-74
2023/10/18 04:58:45;;;;;;;13.90;12.80;;;7.90;51.10;;;;;;20482;6849;308298;-75
2023/10/18 05:01:13;;;;;;;13.30;12.20;;;8.00;50.80;;;;;;20703;6849;117598;-75
2023/10/18 05:03:37;;;;;;;11.07;10.17;;;8.00;50.80;;;;;;20678;6849;117604;-76
2023/10/18 05:06:04;;;;;;;7.93;7.43;;;7.80;51.10;;;;;;20714;6849;67481;-75
2023/10/18 05:08:30;;;;;;;10.23;9.52;;;7.60;51.30;;;;;;20494;6847;309072;-74
2023/10/18 05:10:54;;;;;;;18.30;10.40;;;7.70;50.90;;;;;;20476;6848;309669;-81
2023/10/18 05:13:32;;;;;;;9.47;8.67;;;8.00;50.20;;;;;;20654;6849;120321;-75
2023/10/18 05:15:50;;;;;;;10.87;10.17;;;7.90;50.00;;;;;;20432;6849;307698;-75
2023/10/18 05:18:16;;;;;;;11.93;11.12;;;8.20;49.20;;;;;;20478;6849;308153;-75
2023/10/18 05:20:42;;;;;;;11.37;10.43;;;8.20;49.40;;;;;;20689;6849;118414;-75
2023/10/18 05:23:08;;;;;;;9.87;9.17;;;7.80;50.10;;;;;;20700;6849;117338;-75
2023/10/18 05:25:45;;;;;;;10.57;9.67;;;7.70;50.00;;;;;;20680;6849;116887;-75
2023/10/18 05:33:47;;;;;;;10.80;10.10;;;7.60;50.40;;;;;;20466;6849;341800;-74
2023/10/18 05:35:47;;;;;;;11.20;10.30;;;7.80;51.00;;;;;;20638;6849;117628;-75
2023/10/18 05:43:12;;;;;;;9.23;8.17;;;7.80;50.30;;;;;;20710;6849;120970;-75
2023/10/18 05:45:32;;;;;;;8.77;8.07;;;7.70;50.60;;;;;;20670;6849;117593;-76
2023/10/18 05:48:12;;;;;;;9.33;8.43;;;7.50;50.80;;;;;;20713;6849;118712;-74
2023/10/18 05:50:34;;;;;;;9.90;9.10;;;7.30;51.00;;;;;;20690;6849;117329;-74
2023/10/18 05:52:58;;;;;;;8.90;8.20;;;7.20;51.10;;;;;;20685;6849;117103;-74
2023/10/18 05:55:21;;;;;;;9.05;8.35;;;7.10;51.30;;;;;;20681;6849;127275;-74
2023/10/18 05:57:48;;;;;;;12.23;11.32;;;7.20;51.40;;;;;;20493;6849;279558;-74
2023/10/18 06:00:19;;;;;;;13.50;12.40;;;7.20;51.40;;;;;;20491;6849;278282;-74
2023/10/18 06:02:45;;;;;;;11.60;10.70;;;7.60;51.30;;;;;;20700;6849;125270;-74
2023/10/18 06:05:10;;;;;;;13.33;12.33;;;7.60;50.90;;;;;;20483;6849;309115;-74
2023/10/18 06:07:36;;;;;;;15.60;14.20;;;8.00;50.90;;;;;;20472;6849;278464;-74
2023/10/18 06:10:13;;;;;;;12.37;11.17;;;8.00;50.80;;;;;;20683;6849;117952;-74
2023/10/18 06:12:27;;;;;;;15.53;14.23;;;8.00;50.80;;;;;;20451;6849;313249;-74
2023/10/18 06:14:53;;;;;;;13.77;12.07;;;8.20;50.90;;;;;;20700;6849;117761;-74
2023/10/18 06:17:19;;;;;;;14.37;13.07;;;8.10;50.80;;;;;;20662;6849;118278;-75
2023/10/18 06:19:47;;;;;;;11.10;10.10;;;7.90;51.50;;;;;;20694;6849;117986;-74
2023/10/18 06:22:28;;;;;;;9.37;8.67;;;7.80;51.40;;;;;;20700;6847;117207;-74
2023/10/18 06:24:57;;;;;;;69.00;9.97;;;7.60;51.80;;;;;;20695;6849;119471;-73
2023/10/18 06:27:38;;;;;;;12.13;11.23;;;7.60;51.60;;;;;;20468;6849;308599;-74
2023/10/18 06:29:54;;;;;;;14.43;11.93;;;7.80;51.80;;;;;;20468;6849;308728;-73
2023/10/18 06:32:25;;;;;;;46.67;13.32;;;8.20;51.20;;;;;;20487;6849;308333;-74
2023/10/18 06:34:55;;;;;;;17.27;10.40;;;8.60;50.70;;;;;;20706;6849;117335;-73
2023/10/18 06:37:20;;;;;;;15.30;9.57;;;8.50;50.50;;;;;;20681;6849;117505;-73
2023/10/18 06:39:58;;;;;;;10.37;9.57;;;8.30;50.80;;;;;;20702;6849;117832;-73
2023/10/18 06:42:19;;;;;;;15.70;12.73;;;8.00;51.10;;;;;;20459;6849;279483;-74
2023/10/18 06:44:44;;;;;;;15.27;10.60;;;8.10;51.20;;;;;;20691;6849;124088;-74
2023/10/18 06:47:13;;;;;;;14.33;13.13;;;8.30;51.50;;;;;;20494;6849;308507;-74
2023/10/18 06:49:36;;;;;;;13.70;12.70;;;8.30;51.40;;;;;;20467;6849;308651;-74
2023/10/18 06:52:04;;;;;;;15.15;14.05;;;8.60;51.00;;;;;;20494;6849;308960;-74
2023/10/18 06:54:38;;;;;;;14.37;13.07;;;8.80;50.50;;;;;;20484;6849;318670;-74
2023/10/18 06:57:15;;;;;;;14.60;13.10;;;9.00;50.30;;;;;;20463;6849;297438;-75
2023/10/18 06:59:29;;;;;;;14.80;13.70;;;9.30;49.70;;;;;;20429;6849;290750;-74
2023/10/18 07:01:54;;;;;;;14.63;13.27;;;9.30;49.60;;;;;;20693;6849;118835;-74
2023/10/18 07:04:37;;;;;;;12.98;11.82;;;9.10;49.60;;;;;;20705;6849;117808;-74
2023/10/18 07:07:11;;;;;;;15.52;14.32;;;8.80;50.20;;;;;;20477;6849;337369;-74
2023/10/18 07:09:31;;;;;;;15.47;14.20;;;8.80;51.40;;;;;;20443;6849;289051;-75
2023/10/18 07:11:57;;;;;;;15.45;14.25;;;9.40;51.40;;;;;;20477;6849;312475;-74
2023/10/18 07:14:20;;;;;;;10.13;9.40;;;9.40;50.90;;;;;;20687;6849;117960;-74
2023/10/18 07:16:48;;;;;;;13.50;12.52;;;9.40;50.90;;;;;;20480;6849;308588;-74
2023/10/18 07:19:26;;;;;;;12.50;11.57;;;9.50;50.80;;;;;;20701;6849;118264;-74
2023/10/18 07:22:45;;;;;;;14.50;13.40;;;9.50;50.80;;;;;;20498;6849;342124;-74
2023/10/18 07:25:21;;;;;;;16.37;14.83;;;9.70;50.90;;;;;;20703;6849;117759;-74
2023/10/18 07:27:47;;;;;;;16.50;14.97;;;9.60;51.60;;;;;;20701;6849;119768;-73
2023/10/18 07:30:15;;;;;;;19.90;18.12;;;9.50;51.30;;;;;;20485;6849;338874;-74
2023/10/18 07:32:41;;;;;;;16.27;14.87;;;9.80;51.30;;;;;;20698;6847;117763;-73
2023/10/18 07:35:09;;;;;;;19.67;18.08;;;9.90;51.10;;;;;;20491;6848;309314;-73
2023/10/18 07:37:41;;;;;;;18.87;17.08;;;10.10;50.10;;;;;;20461;6849;308672;-73
2023/10/18 07:39:59;;;;;;;20.17;18.47;;;10.40;49.70;;;;;;20468;6849;278660;-73
2023/10/18 07:42:26;;;;;;;15.30;13.90;;;10.80;49.20;;;;;;20697;6849;117580;-73
2023/10/18 07:44:52;;;;;;;12.83;11.73;;;10.80;49.20;;;;;;20699;6849;119530;-73
2023/10/18 07:47:20;;;;;;;12.17;11.07;;;10.50;50.40;;;;;;20700;6849;117371;-73
2023/10/18 07:49:45;;;;;;;13.03;11.93;;;10.50;49.60;;;;;;20669;6849;118862;-73
2023/10/18 07:52:08;;;;;;;18.60;16.93;;;10.50;49.30;;;;;;20479;6849;306698;-74
2023/10/18 07:54:35;;;;;;;19.07;17.37;;;10.50;49.30;;;;;;20487;6849;309017;-74
2023/10/18 07:57:01;;;;;;;19.08;17.48;;;10.90;48.40;;;;;;20487;6849;283080;-74
2023/10/18 07:59:30;;;;;;;15.13;13.70;;;10.80;48.30;;;;;;20676;6849;117940;-74
2023/10/18 08:04:48;;;;;;;13.73;12.53;;;10.70;49.00;;;;;;20695;6849;120774;-74
2023/10/18 08:07:20;;;;;;;15.43;13.90;;;10.60;49.30;;;;;;20712;6849;117428;-74
2023/10/18 08:09:43;;;;;;;18.85;17.25;;;10.40;50.00;;;;;;20466;6849;337416;-75
2023/10/18 08:12:20;;;;;;;17.47;16.17;;;10.60;50.70;;;;;;20493;6849;309145;-74
2023/10/18 08:14:34;;;;;;;10.48;9.60;;;11.10;50.70;;;;;;20637;6849;119464;-76
2023/10/18 08:17:08;;;;;;;9.70;8.87;;;11.20;50.50;;;;;;20692;6849;118231;-74
2023/10/18 08:19:25;;;;;;;11.50;10.50;;;11.20;50.60;;;;;;20432;6849;309559;-72
2023/10/18 08:22:22;;;;;;;10.95;10.15;;;11.40;49.70;;;;;;20697;6849;118043;-74
2023/10/18 08:24:36;;;;;;;10.63;9.80;;;11.50;49.50;;;;;;20652;6849;117466;-75
2023/10/18 08:27:09;;;;;;;7.43;7.03;;;11.50;49.70;;;;;;20487;6849;318328;-75
2023/10/18 08:29:27;;;;;;;9.27;8.47;;;11.80;49.10;;;;;;20657;6849;117901;-75
2023/10/18 08:31:57;;;;;;;9.80;9.17;;;11.90;49.00;;;;;;20488;6849;308321;-75
2023/10/18 08:34:23;;;;;;;9.57;8.80;;;12.50;48.20;;;;;;20703;6849;117183;-74
2023/10/18 08:37:01;;;;;;;8.10;7.57;;;12.50;48.20;;;;;;20489;6849;311248;-73
2023/10/18 08:39:16;;;;;;;10.00;9.30;;;12.80;47.30;;;;;;20667;6849;121145;-74
2023/10/18 08:41:50;;;;;;;9.77;9.05;;;13.00;47.20;;;;;;20467;6849;319881;-73
2023/10/18 08:44:19;;;;;;;10.63;9.77;;;13.30;46.50;;;;;;20459;6847;308473;-74
2023/10/18 08:46:51;;;;;;;8.67;8.13;;;13.70;46.00;;;;;;20699;6848;117709;-74
2023/10/18 08:49:10;;;;;;;9.48;8.65;;;13.80;46.00;;;;;;20451;6849;308512;-75
2023/10/18 08:51:36;;;;;;;10.33;9.53;;;14.00;45.50;;;;;;20673;6849;121789;-74
2023/10/18 08:54:01;;;;;;;8.37;7.87;;;14.00;45.50;;;;;;20695;6849;117501;-75
2023/10/18 08:56:33;;;;;;;6.03;5.63;;;13.90;45.80;;;;;;20712;6849;117452;-75
2023/10/18 08:58:57;;;;;;;7.03;6.43;;;13.80;46.00;;;;;;20707;6849;120596;-74
2023/10/18 09:01:22;;;;;;;6.40;5.90;;;13.70;46.20;;;;;;20685;6849;120420;-74
2023/10/18 09:03:47;;;;;;;9.27;7.50;;;13.70;46.40;;;;;;20708;6849;117856;-76
2023/10/18 09:06:22;;;;;;;7.37;6.77;;;13.70;46.60;;;;;;20703;6849;117283;-73
2023/10/18 09:08:42;;;;;;;5.70;5.37;;;13.70;46.60;;;;;;20676;6849;117562;-74
2023/10/18 09:11:09;;;;;;;8.65;8.05;;;13.70;46.60;;;;;;20478;6849;309007;-74
2023/10/18 09:13:41;;;;;;;9.73;9.07;;;13.90;44.80;;;;;;20463;6849;308883;-73
2023/10/18 09:18:30;;;;;;;9.43;8.73;;;14.60;43.60;;;;;;20484;6849;307668;-73
2023/10/18 09:20:56;;;;;;;7.17;6.63;;;14.80;43.00;;;;;;20493;6849;308763;-74
2023/10/18 09:23:21;;;;;;;9.77;9.10;;;15.00;42.50;;;;;;20484;6849;278717;-74
2023/10/18 09:26:08;;;;;;;9.57;8.87;;;15.20;42.40;;;;;;20494;6849;316025;-74
2023/10/18 09:28:26;;;;;;;11.07;10.18;;;15.30;42.20;;;;;;20478;6849;346771;-75
2023/10/18 09:30:54;;;;;;;9.45;8.77;;;15.50;42.00;;;;;;20485;6849;342659;-76
2023/10/18 09:33:17;;;;;;;8.90;8.20;;;15.60;41.90;;;;;;20695;6849;117771;-74
2023/10/18 09:35:47;;;;;;;8.23;7.63;;;15.50;42.30;;;;;;20697;6849;117375;-75
2023/10/18 09:38:09;;;;;;;6.20;5.90;;;15.30;42.70;;;;;;20699;6849;117505;-74
2023/10/18 09:40:36;;;;;;;7.60;6.77;;;15.00;43.80;;;;;;20714;6849;117522;-74
2023/10/18 09:43:01;;;;;;;10.53;9.63;;;14.90;43.70;;;;;;20499;6849;317938;-74
2023/10/18 09:45:28;;;;;;;7.60;7.10;;;15.10;43.10;;;;;;20690;6849;151740;-75
2023/10/18 09:47:52;;;;;;;7.47;6.82;;;15.20;43.30;;;;;;20496;6849;308156;-75
2023/10/18 09:50:25;;;;;;;7.55;7.05;;;15.40;41.70;;;;;;20501;6849;310148;-75
2023/10/18 09:52:56;;;;;;;10.50;9.73;;;15.70;41.80;;;;;;20494;6849;320180;-75
2023/10/18 09:55:16;;;;;;;11.90;10.80;;;16.00;41.30;;;;;;20681;6847;118642;-75
2023/10/18 09:57:42;;;;;;;13.27;12.37;;;16.10;41.80;;;;;;20469;6848;310476;-74
2023/10/18 10:00:11;;;;;;;12.20;11.20;;;16.20;41.40;;;;;;20694;6849;118599;-73
2023/10/18 10:02:36;;;;;;;11.43;10.53;;;16.30;42.10;;;;;;20483;6849;308600;-74
2023/10/18 10:05:06;;;;;;;10.60;9.90;;;16.50;42.00;;;;;;20485;6849;278548;-76
2023/10/18 10:07:27;;;;;;;6.23;5.90;;;16.70;40.90;;;;;;20658;6849;121797;-74
2023/10/18 10:09:59;;;;;;;9.30;8.70;;;16.80;41.30;;;;;;20487;6849;291150;-76
2023/10/18 10:12:18;;;;;;;8.35;7.65;;;17.00;40.60;;;;;;20680;6849;117224;-76
2023/10/18 10:14:43;;;;;;;11.37;10.50;;;17.10;41.00;;;;;;20469;6849;278852;-75
2023/10/18 10:17:14;;;;;;;9.07;8.37;;;17.20;41.00;;;;;;20701;6849;118433;-74
2023/10/18 10:19:41;;;;;;;7.97;7.43;;;17.20;41.00;;;;;;20673;6849;123473;-74
2023/10/18 10:22:06;;;;;;;11.17;10.37;;;17.00;41.30;;;;;;20433;6849;278714;-75
2023/10/18 10:24:52;;;;;;;9.87;9.20;;;17.20;40.80;;;;;;20479;6849;310531;-75
2023/10/18 10:27:27;;;;;;;6.13;5.83;;;17.50;39.90;;;;;;20697;6849;117115;-76
2023/10/18 10:29:56;;;;;;;8.20;7.60;;;17.50;40.40;;;;;;20700;6849;117237;-75
2023/10/18 10:32:23;;;;;;;10.23;9.52;;;17.40;40.60;;;;;;20460;6849;337710;-75
2023/10/18 10:34:47;;;;;;;12.73;11.73;;;17.40;39.80;;;;;;20685;6849;117345;-75
2023/10/18 10:37:18;;;;;;;11.90;10.90;;;17.10;40.90;;;;;;20701;6849;118469;-76
2023/10/18 10:39:49;;;;;;;11.07;10.17;;;17.10;40.90;;;;;;20660;6849;119215;-78
2023/10/18 10:42:29;;;;;;;8.80;8.20;;;17.00;41.50;;;;;;20474;6849;283185;-77
2023/10/18 10:45:06;;;;;;;13.93;12.73;;;17.10;40.20;;;;;;20469;6849;312144;-77
2023/10/18 10:47:31;;;;;;;8.17;7.67;;;17.40;40.00;;;;;;20460;6849;282871;-74
2023/10/18 10:50:00;;;;;;;13.97;12.87;;;17.60;39.30;;;;;;20480;6849;317845;-74
2023/10/18 10:52:31;;;;;;;9.23;8.63;;;17.80;39.60;;;;;;20699;6849;121739;-74
2023/10/18 10:55:04;;;;;;;9.43;8.73;;;17.60;39.90;;;;;;20696;6849;117189;-76
2023/10/18 10:57:29;;;;;;;8.13;7.53;;;17.30;40.40;;;;;;20448;6849;308610;-75
2023/10/18 10:59:56;;;;;;;11.30;10.10;;;17.30;39.30;;;;;;20480;6849;313531;-72
2023/10/18 11:02:29;;;;;;;9.83;8.97;;;17.50;38.40;;;;;;20688;6849;117546;-74
2023/10/18 11:04:50;;;;;;;9.07;8.50;;;17.50;39.00;;;;;;20474;6849;305544;-75
2023/10/18 11:07:22;;;;;;;9.47;8.87;;;17.40;38.70;;;;;;20693;6847;117153;-74
2023/10/18 11:09:48;;;;;;;8.63;7.93;;;17.40;38.70;;;;;;20694;6848;117624;-75
2023/10/18 11:12:14;;;;;;;8.23;7.73;;;17.20;38.80;;;;;;20486;6849;308495;-74
2023/10/18 11:14:43;;;;;;;6.50;6.10;;;17.40;38.70;;;;;;20488;6849;309061;-74
2023/10/18 11:17:17;;;;;;;10.17;9.47;;;17.40;38.60;;;;;;20703;6849;117165;-75
2023/10/18 11:19:40;;;;;;;8.10;7.50;;;17.30;39.00;;;;;;20646;6849;118625;-76
2023/10/18 11:22:00;;;;;;;12.97;11.77;;;17.00;39.50;;;;;;20445;6849;308044;-76
2023/10/18 11:24:28;;;;;;;11.30;10.23;;;16.90;40.00;;;;;;20700;6849;117490;-77
2023/10/18 11:26:54;;;;;;;12.33;11.43;;;16.90;40.00;;;;;;20465;6849;283156;-81
2023/10/18 11:29:25;;;;;;;11.35;10.45;;;16.90;39.80;;;;;;20466;6849;306326;-76
2023/10/18 11:31:55;;;;;;;11.00;10.10;;;17.10;39.80;;;;;;20696;6849;123753;-75
2023/10/18 11:34:21;;;;;;;9.97;9.17;;;16.90;40.10;;;;;;20683;6849;117796;-75
2023/10/18 11:36:42;;;;;;;10.77;9.98;;;16.60;40.60;;;;;;20467;6849;312785;-77
2023/10/18 11:39:18;;;;;;;9.47;8.67;;;16.60;40.80;;;;;;20697;6849;119684;-77
2023/10/18 11:41:48;;;;;;;5.90;5.50;;;16.40;40.80;;;;;;20700;6849;117309;-78
2023/10/18 11:44:16;;;;;;;9.63;8.82;;;16.40;40.80;;;;;;20479;6849;341357;-76
2023/10/18 11:46:47;;;;;;;7.20;6.60;;;16.60;40.20;;;;;;20687;6849;118051;-77
2023/10/18 11:49:19;;;;;;;8.97;8.17;;;16.60;40.40;;;;;;20691;6849;117147;-77
2023/10/18 11:51:49;;;;;;;8.50;7.90;;;16.70;39.40;;;;;;20479;6849;309345;-77
2023/10/18 11:54:31;;;;;;;7.87;7.27;;;16.70;39.40;;;;;;20667;6849;118139;-77
2023/10/18 11:56:56;;;;;;;9.20;8.60;;;16.70;39.80;;;;;;20460;6849;340927;-77
2023/10/18 11:59:25;;;;;;;5.80;5.40;;;16.90;39.90;;;;;;20673;6849;118034;-75
2023/10/18 12:01:54;;;;;;;10.70;9.80;;;16.90;40.20;;;;;;20456;6849;294470;-74
2023/10/18 12:04:27;;;;;;;9.10;8.40;;;17.10;40.30;;;;;;20415;6849;314180;-74
2023/10/18 12:06:49;;;;;;;9.90;9.20;;;17.40;39.60;;;;;;20452;6849;286990;-74
2023/10/18 12:11:39;;;;;;;9.70;9.00;;;18.00;38.90;;;;;;20418;6849;308611;-74
2023/10/18 12:14:08;;;;;;;8.00;7.50;;;17.90;38.80;;;;;;20673;6849;117386;-74
2023/10/18 12:16:32;;;;;;;8.73;8.07;;;17.80;39.20;;;;;;20671;6849;117838;-75
2023/10/18 12:18:58;;;;;;;8.90;8.10;;;17.50;39.70;;;;;;20468;6847;341283;-75
2023/10/18 12:21:29;;;;;;;8.10;7.50;;;17.70;38.60;;;;;;20462;6848;307685;-75
2023/10/18 12:23:50;;;;;;;6.73;6.27;;;17.70;38.60;;;;;;20677;6849;117569;-73
2023/10/18 12:26:15;;;;;;;7.80;7.20;;;17.70;39.00;;;;;;20482;6849;315322;-75
2023/10/18 12:28:42;;;;;;;8.82;8.23;;;17.90;38.50;;;;;;20489;6849;283542;-76
2023/10/18 12:31:16;;;;;;;6.70;6.13;;;17.90;38.50;;;;;;20699;6849;124112;-78
2023/10/18 12:33:48;;;;;;;8.30;7.63;;;17.90;38.90;;;;;;20687;6849;118119;-76
2023/10/18 12:36:08;;;;;;;10.13;9.33;;;17.70;39.40;;;;;;20687;6849;117311;-76
2023/10/18 12:38:36;;;;;;;31.60;20.70;;;17.50;39.70;;;;;;20695;6849;118928;-78
2023/10/18 12:41:01;;;;;;;9.57;8.80;;;17.30;40.70;;;;;;20687;6849;117616;-79
2023/10/18 12:43:27;;;;;;;11.10;10.05;;;17.40;39.00;;;;;;20450;6849;338678;-78
2023/10/18 12:45:52;;;;;;;8.33;7.63;;;17.40;39.10;;;;;;20671;6849;118107;-79
2023/10/18 12:48:22;;;;;;;7.80;7.20;;;17.40;39.50;;;;;;20704;6849;117172;-77
2023/10/18 12:50:45;;;;;;;8.43;7.83;;;17.30;39.70;;;;;;20479;6849;308026;-77
2023/10/18 12:55:57;;;;;;;7.80;7.10;;;17.40;39.20;;;;;;20702;6849;123671;-76